aviador You're here:

PARC Decoded Metar

ARCTIC VILLAGE in AK, USA
Report Time2018-02-18 20:56:00
UTC Time2018-02-18 21:39:44
Flight Rules vfr VFR
WindCalm
Visibility9999 m
Phenomena:N/A
Clouds:N/A
Expected CloudBase > 1,600 ft AGL from Temp-Dew spread
CeilingNone
Temp-18°C (ISA -29)
Dew Point-22°C (71% RH)
AAT-21.7°C
QNH1024 hPa
Density Alt-1,926 ft
Elevation2,087 ft
Report Wrong Elevation
Raw Report
PARC 182056Z AUTO 00000KT 10SM CLR M18/M22 A3024 RMK AO2 SLP339
T11831222 56022 FZRANO=

Extra information for PARC:More info

Airport Information Weather charts Add Link Nearby Venues Social comments

AIRNAV info for PARC